sensor_id;sensor_type;location;lat;lon;timestamp;pressure;altitude;pressure_sealevel;temperature;humidity
68580;BME280;55555;52.136;5.424;2022-08-19T00:01:51;101446.88;;;17.24;88.51
68580;BME280;55555;52.136;5.424;2022-08-19T00:04:23;101449.03;;;17.22;88.49
68580;BME280;55555;52.136;5.424;2022-08-19T00:06:52;101440.50;;;17.18;88.63
68580;BME280;55555;52.136;5.424;2022-08-19T00:09:21;101443.25;;;17.18;88.58
68580;BME280;55555;52.136;5.424;2022-08-19T00:11:51;101446.78;;;17.19;88.31
68580;BME280;55555;52.136;5.424;2022-08-19T00:14:19;101450.00;;;17.16;88.29
68580;BME280;55555;52.136;5.424;2022-08-19T00:16:48;101460.34;;;17.14;88.13
68580;BME280;55555;52.136;5.424;2022-08-19T00:19:17;101459.16;;;17.10;88.43
68580;BME280;55555;52.136;5.424;2022-08-19T00:21:44;101455.41;;;16.99;88.84
68580;BME280;55555;52.136;5.424;2022-08-19T00:24:13;101458.25;;;17.04;88.23
68580;BME280;55555;52.136;5.424;2022-08-19T00:26:42;101450.06;;;17.04;88.45
68580;BME280;55555;52.136;5.424;2022-08-19T00:29:11;101452.94;;;16.98;88.44
68580;BME280;55555;52.136;5.424;2022-08-19T00:31:40;101449.63;;;16.96;88.54
68580;BME280;55555;52.136;5.424;2022-08-19T00:34:10;101450.13;;;16.93;88.87
68580;BME280;55555;52.136;5.424;2022-08-19T00:36:40;101452.00;;;16.92;88.47
68580;BME280;55555;52.136;5.424;2022-08-19T00:39:08;101451.09;;;16.86;88.85
68580;BME280;55555;52.136;5.424;2022-08-19T00:41:35;101458.19;;;16.87;88.86
68580;BME280;55555;52.136;5.424;2022-08-19T00:44:12;101444.56;;;16.87;88.70
68580;BME280;55555;52.136;5.424;2022-08-19T00:46:44;101446.84;;;16.79;89.09
68580;BME280;55555;52.136;5.424;2022-08-19T00:49:27;101444.13;;;16.79;88.83
68580;BME280;55555;52.136;5.424;2022-08-19T00:52:09;101439.28;;;16.69;89.41
68580;BME280;55555;52.136;5.424;2022-08-19T00:54:41;101449.69;;;16.72;89.18
68580;BME280;55555;52.136;5.424;2022-08-19T00:57:12;101441.28;;;16.74;88.87
68580;BME280;55555;52.136;5.424;2022-08-19T00:59:45;101448.03;;;16.71;88.84
68580;BME280;55555;52.136;5.424;2022-08-19T01:02:29;101444.88;;;16.63;89.28
68580;BME280;55555;52.136;5.424;2022-08-19T01:04:57;101443.94;;;16.57;89.33
68580;BME280;55555;52.136;5.424;2022-08-19T01:07:26;101452.19;;;16.62;89.13
68580;BME280;55555;52.136;5.424;2022-08-19T01:10:01;101448.66;;;16.62;88.98
68580;BME280;55555;52.136;5.424;2022-08-19T01:12:30;101446.66;;;16.57;89.15
68580;BME280;55555;52.136;5.424;2022-08-19T01:14:57;101445.81;;;16.57;88.81
68580;BME280;55555;52.136;5.424;2022-08-19T01:17:25;101441.69;;;16.54;88.99
68580;BME280;55555;52.136;5.424;2022-08-19T01:19:53;101450.34;;;16.51;89.25
68580;BME280;55555;52.136;5.424;2022-08-19T01:24:58;101438.28;;;16.47;89.65
68580;BME280;55555;52.136;5.424;2022-08-19T01:27:25;101444.78;;;16.46;89.29
68580;BME280;55555;52.136;5.424;2022-08-19T01:30:12;101438.75;;;16.44;89.36
68580;BME280;55555;52.136;5.424;2022-08-19T01:32:48;101439.81;;;16.43;89.29
68580;BME280;55555;52.136;5.424;2022-08-19T01:35:16;101444.91;;;16.39;89.09
68580;BME280;55555;52.136;5.424;2022-08-19T01:37:49;101446.78;;;16.39;89.07
68580;BME280;55555;52.136;5.424;2022-08-19T01:40:20;101446.22;;;16.37;88.87
68580;BME280;55555;52.136;5.424;2022-08-19T01:42:50;101454.25;;;16.32;88.85
68580;BME280;55555;52.136;5.424;2022-08-19T01:45:20;101444.91;;;16.28;89.14
68580;BME280;55555;52.136;5.424;2022-08-19T01:47:48;101441.59;;;16.26;89.02
68580;BME280;55555;52.136;5.424;2022-08-19T01:50:29;101446.09;;;16.20;89.49
68580;BME280;55555;52.136;5.424;2022-08-19T01:52:58;101444.81;;;16.22;89.36
68580;BME280;55555;52.136;5.424;2022-08-19T01:55:35;101446.94;;;16.20;89.29
68580;BME280;55555;52.136;5.424;2022-08-19T01:58:09;101454.88;;;16.10;89.88
68580;BME280;55555;52.136;5.424;2022-08-19T02:00:42;101461.69;;;16.13;89.47
68580;BME280;55555;52.136;5.424;2022-08-19T02:03:09;101457.09;;;16.13;89.13
68580;BME280;55555;52.136;5.424;2022-08-19T02:05:38;101462.53;;;16.13;89.32
68580;BME280;55555;52.136;5.424;2022-08-19T02:08:06;101453.81;;;16.11;89.28
68580;BME280;55555;52.136;5.424;2022-08-19T02:10:33;101454.28;;;16.08;89.32
68580;BME280;55555;52.136;5.424;2022-08-19T02:13:06;101458.06;;;16.07;89.53
68580;BME280;55555;52.136;5.424;2022-08-19T02:15:33;101448.72;;;16.03;89.36
68580;BME280;55555;52.136;5.424;2022-08-19T02:18:00;101451.91;;;16.00;89.38
68580;BME280;55555;52.136;5.424;2022-08-19T02:20:27;101454.97;;;15.92;90.03
68580;BME280;55555;52.136;5.424;2022-08-19T02:22:54;101452.84;;;15.94;89.54
68580;BME280;55555;52.136;5.424;2022-08-19T02:25:21;101452.25;;;15.92;89.81
68580;BME280;55555;52.136;5.424;2022-08-19T02:27:48;101447.91;;;15.91;89.30
68580;BME280;55555;52.136;5.424;2022-08-19T02:30:16;101455.56;;;15.82;89.75
68580;BME280;55555;52.136;5.424;2022-08-19T02:32:45;101458.03;;;15.84;89.47
68580;BME280;55555;52.136;5.424;2022-08-19T02:35:13;101462.28;;;15.80;89.76
68580;BME280;55555;52.136;5.424;2022-08-19T02:37:42;101466.44;;;15.82;89.51
68580;BME280;55555;52.136;5.424;2022-08-19T02:40:29;101467.72;;;15.80;89.77
68580;BME280;55555;52.136;5.424;2022-08-19T02:43:01;101479.44;;;15.80;89.48
68580;BME280;55555;52.136;5.424;2022-08-19T02:45:37;101479.06;;;15.77;89.59
68580;BME280;55555;52.136;5.424;2022-08-19T02:48:07;101478.47;;;15.75;89.60
68580;BME280;55555;52.136;5.424;2022-08-19T02:50:48;101475.97;;;15.73;89.73
68580;BME280;55555;52.136;5.424;2022-08-19T02:53:21;101472.91;;;15.70;89.79
68580;BME280;55555;52.136;5.424;2022-08-19T02:55:49;101469.59;;;15.68;89.88
68580;BME280;55555;52.136;5.424;2022-08-19T02:58:18;101474.66;;;15.64;90.27
68580;BME280;55555;52.136;5.424;2022-08-19T03:00:54;101475.50;;;15.65;89.78
68580;BME280;55555;52.136;5.424;2022-08-19T03:03:22;101478.22;;;15.65;89.96
68580;BME280;55555;52.136;5.424;2022-08-19T03:05:49;101476.56;;;15.64;89.52
68580;BME280;55555;52.136;5.424;2022-08-19T03:08:23;101475.97;;;15.62;89.67
68580;BME280;55555;52.136;5.424;2022-08-19T03:10:51;101477.84;;;15.61;89.63
68580;BME280;55555;52.136;5.424;2022-08-19T03:13:19;101471.03;;;15.59;89.94
68580;BME280;55555;52.136;5.424;2022-08-19T03:15:47;101460.59;;;15.55;89.72
68580;BME280;55555;52.136;5.424;2022-08-19T03:18:15;101458.09;;;15.54;89.59
68580;BME280;55555;52.136;5.424;2022-08-19T03:20:45;101451.25;;;15.51;89.60
68580;BME280;55555;52.136;5.424;2022-08-19T03:23:15;101460.47;;;15.50;89.55
68580;BME280;55555;52.136;5.424;2022-08-19T03:25:46;101455.25;;;15.49;89.56
68580;BME280;55555;52.136;5.424;2022-08-19T03:28:34;101453.59;;;15.48;89.54
68580;BME280;55555;52.136;5.424;2022-08-19T03:31:04;101452.19;;;15.45;89.58
68580;BME280;55555;52.136;5.424;2022-08-19T03:33:53;101455.13;;;15.44;89.95
68580;BME280;55555;52.136;5.424;2022-08-19T03:36:23;101457.00;;;15.43;89.95
68580;BME280;55555;52.136;5.424;2022-08-19T03:38:56;101448.72;;;15.38;90.11
68580;BME280;55555;52.136;5.424;2022-08-19T03:41:28;101455.22;;;15.37;90.19
68580;BME280;55555;52.136;5.424;2022-08-19T03:44:18;101460.66;;;15.37;89.95
68580;BME280;55555;52.136;5.424;2022-08-19T03:46:51;101459.59;;;15.38;90.01
68580;BME280;55555;52.136;5.424;2022-08-19T03:49:23;101471.97;;;15.34;90.43
68580;BME280;55555;52.136;5.424;2022-08-19T03:51:56;101462.75;;;15.35;90.05
68580;BME280;55555;52.136;5.424;2022-08-19T03:54:27;101454.03;;;15.33;90.12
68580;BME280;55555;52.136;5.424;2022-08-19T03:56:55;101458.03;;;15.31;90.02
68580;BME280;55555;52.136;5.424;2022-08-19T03:59:26;101445.75;;;15.28;90.04
68580;BME280;55555;52.136;5.424;2022-08-19T04:01:57;101450.56;;;15.26;89.85
68580;BME280;55555;52.136;5.424;2022-08-19T04:04:26;101454.34;;;15.25;90.03
68580;BME280;55555;52.136;5.424;2022-08-19T04:06:55;101454.34;;;15.25;90.08
68580;BME280;55555;52.136;5.424;2022-08-19T04:09:22;101455.03;;;15.20;89.93
68580;BME280;55555;52.136;5.424;2022-08-19T04:11:52;101445.47;;;15.18;90.29
68580;BME280;55555;52.136;5.424;2022-08-19T04:14:24;101438.97;;;15.19;90.12
68580;BME280;55555;52.136;5.424;2022-08-19T04:16:54;101439.44;;;15.16;90.26
68580;BME280;55555;52.136;5.424;2022-08-19T04:19:21;101431.91;;;15.18;90.40
68580;BME280;55555;52.136;5.424;2022-08-19T04:21:52;101440.13;;;15.11;91.41
68580;BME280;55555;52.136;5.424;2022-08-19T04:24:20;101444.50;;;15.12;91.28
68580;BME280;55555;52.136;5.424;2022-08-19T04:26:48;101452.41;;;15.14;91.05
68580;BME280;55555;52.136;5.424;2022-08-19T04:29:19;101442.25;;;15.09;91.20
68580;BME280;55555;52.136;5.424;2022-08-19T04:31:52;101441.19;;;15.10;91.33
68580;BME280;55555;52.136;5.424;2022-08-19T04:34:21;101435.75;;;15.10;91.90
68580;BME280;55555;52.136;5.424;2022-08-19T04:36:52;101438.25;;;15.12;91.46
68580;BME280;55555;52.136;5.424;2022-08-19T04:39:24;101438.63;;;15.15;91.73
68580;BME280;55555;52.136;5.424;2022-08-19T04:42:12;101445.47;;;15.18;92.38
68580;BME280;55555;52.136;5.424;2022-08-19T04:44:58;101443.34;;;15.20;93.04
68580;BME280;55555;52.136;5.424;2022-08-19T04:47:25;101437.69;;;15.21;92.27
68580;BME280;55555;52.136;5.424;2022-08-19T04:50:13;101441.22;;;15.22;92.39
68580;BME280;55555;52.136;5.424;2022-08-19T04:52:40;101435.56;;;15.23;92.97
68580;BME280;55555;52.136;5.424;2022-08-19T04:55:10;101437.59;;;15.28;92.38
68580;BME280;55555;52.136;5.424;2022-08-19T04:57:38;101436.53;;;15.29;92.58
68580;BME280;55555;52.136;5.424;2022-08-19T05:00:07;101438.66;;;15.27;92.49
68580;BME280;55555;52.136;5.424;2022-08-19T05:02:35;101439.84;;;15.31;92.27
68580;BME280;55555;52.136;5.424;2022-08-19T05:05:03;101446.94;;;15.32;91.94
68580;BME280;55555;52.136;5.424;2022-08-19T05:07:32;101450.72;;;15.31;92.39
68580;BME280;55555;52.136;5.424;2022-08-19T05:09:59;101449.88;;;15.31;92.29
68580;BME280;55555;52.136;5.424;2022-08-19T05:12:26;101455.09;;;15.32;92.26
68580;BME280;55555;52.136;5.424;2022-08-19T05:14:55;101456.50;;;15.35;92.36
68580;BME280;55555;52.136;5.424;2022-08-19T05:17:25;101464.66;;;15.35;92.33
68580;BME280;55555;52.136;5.424;2022-08-19T05:19:56;101456.03;;;15.38;92.56
68580;BME280;55555;52.136;5.424;2022-08-19T05:22:44;101462.31;;;15.38;92.53
68580;BME280;55555;52.136;5.424;2022-08-19T05:25:17;101466.69;;;15.39;92.46
68580;BME280;55555;52.136;5.424;2022-08-19T05:27:46;101461.84;;;15.41;92.39
68580;BME280;55555;52.136;5.424;2022-08-19T05:30:14;101457.00;;;15.43;92.51
68580;BME280;55555;52.136;5.424;2022-08-19T05:32:42;101464.09;;;15.44;92.28
68580;BME280;55555;52.136;5.424;2022-08-19T05:35:10;101460.31;;;15.45;92.43
68580;BME280;55555;52.136;5.424;2022-08-19T05:37:37;101461.50;;;15.49;92.80
68580;BME280;55555;52.136;5.424;2022-08-19T05:40:08;101459.41;;;15.51;92.89
68580;BME280;55555;52.136;5.424;2022-08-19T05:42:36;101453.91;;;15.58;92.95
68580;BME280;55555;52.136;5.424;2022-08-19T05:45:03;101466.75;;;15.63;92.54
68580;BME280;55555;52.136;5.424;2022-08-19T05:47:32;101472.53;;;15.66;92.48
68580;BME280;55555;52.136;5.424;2022-08-19T05:49:59;101470.19;;;15.70;91.30
68580;BME280;55555;52.136;5.424;2022-08-19T05:52:30;101466.53;;;15.76;92.52
68580;BME280;55555;52.136;5.424;2022-08-19T05:54:58;101462.06;;;15.81;92.25
68580;BME280;55555;52.136;5.424;2022-08-19T05:57:25;101450.25;;;15.87;91.93
68580;BME280;55555;52.136;5.424;2022-08-19T05:59:54;101449.53;;;15.92;92.29
68580;BME280;55555;52.136;5.424;2022-08-19T06:02:25;101456.28;;;16.01;91.81
68580;BME280;55555;52.136;5.424;2022-08-19T06:04:53;101458.66;;;16.09;92.44
68580;BME280;55555;52.136;5.424;2022-08-19T06:07:20;101465.25;;;16.13;92.14
68580;BME280;55555;52.136;5.424;2022-08-19T06:09:47;101469.03;;;16.24;92.06
68580;BME280;55555;52.136;5.424;2022-08-19T06:12:25;101467.63;;;16.33;91.46
68580;BME280;55555;52.136;5.424;2022-08-19T06:14:56;101466.06;;;16.37;92.31
68580;BME280;55555;52.136;5.424;2022-08-19T06:17:27;101469.03;;;16.47;92.47
68580;BME280;55555;52.136;5.424;2022-08-19T06:19:57;101461.91;;;16.58;92.64
68580;BME280;55555;52.136;5.424;2022-08-19T06:22:24;101465.31;;;16.65;91.14
68580;BME280;55555;52.136;5.424;2022-08-19T06:24:52;101461.88;;;16.81;92.74
68580;BME280;55555;52.136;5.424;2022-08-19T06:27:21;101456.97;;;16.95;92.69
68580;BME280;55555;52.136;5.424;2022-08-19T06:29:48;101448.88;;;17.12;93.50
68580;BME280;55555;52.136;5.424;2022-08-19T06:32:16;101457.28;;;17.27;93.86
68580;BME280;55555;52.136;5.424;2022-08-19T06:34:45;101457.25;;;17.56;93.69
68580;BME280;55555;52.136;5.424;2022-08-19T06:37:13;101461.31;;;17.70;93.87
68580;BME280;55555;52.136;5.424;2022-08-19T06:39:42;101461.09;;;18.05;93.74
68580;BME280;55555;52.136;5.424;2022-08-19T06:42:11;101460.34;;;18.09;93.13
68580;BME280;55555;52.136;5.424;2022-08-19T06:44:45;101464.81;;;18.37;92.23
68580;BME280;55555;52.136;5.424;2022-08-19T06:47:17;101464.63;;;18.44;91.85
68580;BME280;55555;52.136;5.424;2022-08-19T06:49:55;101464.19;;;18.69;90.98
68580;BME280;55555;52.136;5.424;2022-08-19T06:52:34;101465.28;;;18.73;91.45
68580;BME280;55555;52.136;5.424;2022-08-19T06:55:04;101469.22;;;18.82;91.13
68580;BME280;55555;52.136;5.424;2022-08-19T06:57:33;101472.72;;;18.77;91.22
68580;BME280;55555;52.136;5.424;2022-08-19T07:00:00;101466.88;;;18.91;90.57
68580;BME280;55555;52.136;5.424;2022-08-19T07:02:28;101475.25;;;18.84;90.95
68580;BME280;55555;52.136;5.424;2022-08-19T07:04:55;101469.38;;;18.70;91.71
68580;BME280;55555;52.136;5.424;2022-08-19T07:07:32;101471.84;;;18.94;91.32
68580;BME280;55555;52.136;5.424;2022-08-19T07:10:00;101480.84;;;18.72;91.67
68580;BME280;55555;52.136;5.424;2022-08-19T07:12:32;101477.25;;;18.89;90.67
68580;BME280;55555;52.136;5.424;2022-08-19T07:15:03;101480.28;;;18.92;90.86
68580;BME280;55555;52.136;5.424;2022-08-19T07:17:31;101477.94;;;18.79;91.47
68580;BME280;55555;52.136;5.424;2022-08-19T07:20:01;101485.88;;;18.80;91.44
68580;BME280;55555;52.136;5.424;2022-08-19T07:22:36;101481.91;;;18.66;91.69
68580;BME280;55555;52.136;5.424;2022-08-19T07:25:05;101482.50;;;18.73;91.67
68580;BME280;55555;52.136;5.424;2022-08-19T07:27:33;101479.22;;;18.71;92.15
68580;BME280;55555;52.136;5.424;2022-08-19T07:30:00;101482.00;;;18.76;91.52
68580;BME280;55555;52.136;5.424;2022-08-19T07:32:27;101481.41;;;18.74;91.79
68580;BME280;55555;52.136;5.424;2022-08-19T07:34:57;101478.31;;;18.88;90.89
68580;BME280;55555;52.136;5.424;2022-08-19T07:37:26;101489.38;;;18.98;91.12
68580;BME280;55555;52.136;5.424;2022-08-19T07:40:02;101490.56;;;18.85;91.80
68580;BME280;55555;52.136;5.424;2022-08-19T07:42:31;101487.59;;;18.87;91.46
68580;BME280;55555;52.136;5.424;2022-08-19T07:44:58;101488.16;;;19.10;91.11
68580;BME280;55555;52.136;5.424;2022-08-19T07:47:25;101478.06;;;19.11;91.14
68580;BME280;55555;52.136;5.424;2022-08-19T07:50:14;101496.72;;;19.19;91.25
68580;BME280;55555;52.136;5.424;2022-08-19T07:52:42;101496.50;;;19.26;90.94
68580;BME280;55555;52.136;5.424;2022-08-19T07:55:14;101494.63;;;19.31;90.03
68580;BME280;55555;52.136;5.424;2022-08-19T07:58:01;101492.22;;;19.35;90.08
68580;BME280;55555;52.136;5.424;2022-08-19T08:00:30;101490.41;;;19.45;89.45
68580;BME280;55555;52.136;5.424;2022-08-19T08:02:57;101512.28;;;19.45;89.61
68580;BME280;55555;52.136;5.424;2022-08-19T08:05:24;101513.09;;;19.46;89.26
68580;BME280;55555;52.136;5.424;2022-08-19T08:08:13;101513.50;;;19.33;89.56
68580;BME280;55555;52.136;5.424;2022-08-19T08:10:59;101514.25;;;19.50;89.32
68580;BME280;55555;52.136;5.424;2022-08-19T08:13:27;101514.47;;;19.70;88.32
68580;BME280;55555;52.136;5.424;2022-08-19T08:15:55;101519.94;;;19.70;88.14
68580;BME280;55555;52.136;5.424;2022-08-19T08:18:24;101530.66;;;19.77;87.20
68580;BME280;55555;52.136;5.424;2022-08-19T08:20:56;101523.84;;;19.79;86.50
68580;BME280;55555;52.136;5.424;2022-08-19T08:23:25;101516.97;;;19.72;87.18
68580;BME280;55555;52.136;5.424;2022-08-19T08:25:56;101523.09;;;19.89;87.65
68580;BME280;55555;52.136;5.424;2022-08-19T08:28:25;101522.50;;;19.82;86.93
68580;BME280;55555;52.136;5.424;2022-08-19T08:30:55;101528.56;;;19.89;86.93
68580;BME280;55555;52.136;5.424;2022-08-19T08:33:25;101529.19;;;19.96;87.54
68580;BME280;55555;52.136;5.424;2022-08-19T08:36:02;101543.84;;;19.85;87.50
68580;BME280;55555;52.136;5.424;2022-08-19T08:38:32;101556.09;;;19.77;87.14
68580;BME280;55555;52.136;5.424;2022-08-19T08:41:17;101545.56;;;19.91;86.55
68580;BME280;55555;52.136;5.424;2022-08-19T08:43:51;101549.63;;;19.89;86.04
68580;BME280;55555;52.136;5.424;2022-08-19T08:46:24;101545.44;;;20.08;85.53
68580;BME280;55555;52.136;5.424;2022-08-19T08:51:52;101544.13;;;20.15;85.68
68580;BME280;55555;52.136;5.424;2022-08-19T08:54:35;101545.00;;;20.63;84.10
68580;BME280;55555;52.136;5.424;2022-08-19T08:57:18;101536.88;;;20.83;83.15
68580;BME280;55555;52.136;5.424;2022-08-19T09:00:06;101539.19;;;21.07;81.91
68580;BME280;55555;52.136;5.424;2022-08-19T09:02:41;101543.59;;;21.13;81.54
68580;BME280;55555;52.136;5.424;2022-08-19T09:05:10;101542.59;;;21.39;80.08
68580;BME280;55555;52.136;5.424;2022-08-19T09:13:21;101535.28;;;22.31;79.20
68580;BME280;55555;52.136;5.424;2022-08-19T09:16:18;101533.38;;;22.32;75.25
68580;BME280;55555;52.136;5.424;2022-08-19T09:18:56;101537.28;;;23.05;75.03
68580;BME280;55555;52.136;5.424;2022-08-19T09:21:25;101540.88;;;23.50;73.30
68580;BME280;55555;52.136;5.424;2022-08-19T09:23:58;101537.63;;;23.87;73.22
68580;BME280;55555;52.136;5.424;2022-08-19T09:26:29;101545.75;;;24.02;71.72
68580;BME280;55555;52.136;5.424;2022-08-19T09:29:17;101538.72;;;23.91;70.44
68580;BME280;55555;52.136;5.424;2022-08-19T09:31:47;101538.31;;;24.37;69.53
68580;BME280;55555;52.136;5.424;2022-08-19T09:34:15;101538.88;;;24.87;69.14
68580;BME280;55555;52.136;5.424;2022-08-19T09:36:47;101537.63;;;25.40;68.82
68580;BME280;55555;52.136;5.424;2022-08-19T09:39:19;101530.03;;;25.70;67.98
68580;BME280;55555;52.136;5.424;2022-08-19T09:41:46;101530.03;;;25.70;65.96
68580;BME280;55555;52.136;5.424;2022-08-19T09:44:15;101531.22;;;26.29;67.37
68580;BME280;55555;52.136;5.424;2022-08-19T09:46:44;101534.69;;;26.21;62.78
68580;BME280;55555;52.136;5.424;2022-08-19T09:49:13;101534.59;;;26.26;64.32
68580;BME280;55555;52.136;5.424;2022-08-19T09:51:43;101533.16;;;26.47;64.56
68580;BME280;55555;52.136;5.424;2022-08-19T09:54:17;101523.63;;;26.40;61.86
68580;BME280;55555;52.136;5.424;2022-08-19T09:56:50;101533.31;;;25.72;61.61
68580;BME280;55555;52.136;5.424;2022-08-19T09:59:18;101534.38;;;26.41;63.16
68580;BME280;55555;52.136;5.424;2022-08-19T10:01:45;101532.88;;;26.30;62.67
68580;BME280;55555;52.136;5.424;2022-08-19T10:04:13;101536.50;;;26.12;62.89
68580;BME280;55555;52.136;5.424;2022-08-19T10:06:49;101533.13;;;26.61;63.14
68580;BME280;55555;52.136;5.424;2022-08-19T10:09:19;101523.53;;;26.86;61.31
68580;BME280;55555;52.136;5.424;2022-08-19T10:11:59;101530.13;;;26.30;61.34
68580;BME280;55555;52.136;5.424;2022-08-19T10:14:28;101530.88;;;27.04;61.38
68580;BME280;55555;52.136;5.424;2022-08-19T10:16:55;101529.13;;;26.53;58.38
68580;BME280;55555;52.136;5.424;2022-08-19T10:19:24;101535.78;;;26.06;62.72
68580;BME280;55555;52.136;5.424;2022-08-19T10:21:53;101537.59;;;26.29;61.97
68580;BME280;55555;52.136;5.424;2022-08-19T10:24:25;101526.44;;;25.88;62.19
68580;BME280;55555;52.136;5.424;2022-08-19T10:26:54;101531.66;;;25.33;61.64
68580;BME280;55555;52.136;5.424;2022-08-19T10:29:25;101521.81;;;25.65;61.78
68580;BME280;55555;52.136;5.424;2022-08-19T10:32:02;101527.69;;;25.96;62.74
68580;BME280;55555;52.136;5.424;2022-08-19T10:34:39;101534.50;;;25.66;60.76
68580;BME280;55555;52.136;5.424;2022-08-19T10:37:15;101529.28;;;25.83;61.69
68580;BME280;55555;52.136;5.424;2022-08-19T10:39:56;101525.81;;;25.91;62.32
68580;BME280;55555;52.136;5.424;2022-08-19T10:42:23;101537.03;;;25.81;62.24
68580;BME280;55555;52.136;5.424;2022-08-19T10:44:50;101529.50;;;26.00;62.31
68580;BME280;55555;52.136;5.424;2022-08-19T10:47:18;101517.97;;;26.31;63.71
68580;BME280;55555;52.136;5.424;2022-08-19T10:49:56;101518.28;;;26.43;58.82
68580;BME280;55555;52.136;5.424;2022-08-19T10:52:45;101510.78;;;26.30;62.82
68580;BME280;55555;52.136;5.424;2022-08-19T10:55:20;101510.63;;;26.67;61.01
68580;BME280;55555;52.136;5.424;2022-08-19T10:58:12;101518.47;;;26.00;63.03
68580;BME280;55555;52.136;5.424;2022-08-19T11:00:42;101514.22;;;26.22;61.45
68580;BME280;55555;52.136;5.424;2022-08-19T11:03:10;101506.47;;;26.24;60.29
68580;BME280;55555;52.136;5.424;2022-08-19T11:05:37;101499.97;;;26.33;60.93
68580;BME280;55555;52.136;5.424;2022-08-19T11:08:06;101491.38;;;26.35;61.79
68580;BME280;55555;52.136;5.424;2022-08-19T11:10:50;101497.56;;;26.27;63.95
68580;BME280;55555;52.136;5.424;2022-08-19T11:13:22;101504.47;;;26.43;61.67
68580;BME280;55555;52.136;5.424;2022-08-19T11:16:02;101502.63;;;26.80;60.63
68580;BME280;55555;52.136;5.424;2022-08-19T11:18:38;101491.94;;;27.14;62.63
68580;BME280;55555;52.136;5.424;2022-08-19T11:21:10;101495.16;;;26.66;59.91
68580;BME280;55555;52.136;5.424;2022-08-19T11:23:39;101490.84;;;26.60;61.94
68580;BME280;55555;52.136;5.424;2022-08-19T11:26:06;101488.88;;;27.16;61.43
68580;BME280;55555;52.136;5.424;2022-08-19T11:28:33;101497.59;;;27.09;61.74
68580;BME280;55555;52.136;5.424;2022-08-19T11:31:01;101487.25;;;26.74;60.47
68580;BME280;55555;52.136;5.424;2022-08-19T11:33:30;101490.22;;;27.04;61.10
68580;BME280;55555;52.136;5.424;2022-08-19T11:35:58;101484.59;;;26.68;60.28
68580;BME280;55555;52.136;5.424;2022-08-19T11:38:26;101481.81;;;27.46;61.75
68580;BME280;55555;52.136;5.424;2022-08-19T11:40:55;101478.47;;;26.99;59.69
68580;BME280;55555;52.136;5.424;2022-08-19T11:43:27;101477.66;;;27.34;61.11
68580;BME280;55555;52.136;5.424;2022-08-19T11:46:04;101471.34;;;27.07;60.45
68580;BME280;55555;52.136;5.424;2022-08-19T11:48:33;101476.75;;;27.25;60.24
68580;BME280;55555;52.136;5.424;2022-08-19T11:51:05;101480.13;;;27.22;61.42
68580;BME280;55555;52.136;5.424;2022-08-19T11:53:36;101482.59;;;27.24;60.05
68580;BME280;55555;52.136;5.424;2022-08-19T11:56:05;101476.09;;;26.92;60.42
68580;BME280;55555;52.136;5.424;2022-08-19T11:58:33;101485.81;;;27.03;61.83
68580;BME280;55555;52.136;5.424;2022-08-19T12:01:01;101482.09;;;27.22;61.93
68580;BME280;55555;52.136;5.424;2022-08-19T12:03:33;101483.38;;;27.02;63.30
68580;BME280;55555;52.136;5.424;2022-08-19T12:06:10;101478.00;;;27.19;62.97
68580;BME280;55555;52.136;5.424;2022-08-19T12:08:40;101476.50;;;26.86;61.84
68580;BME280;55555;52.136;5.424;2022-08-19T12:11:09;101477.22;;;26.78;62.44
68580;BME280;55555;52.136;5.424;2022-08-19T12:13:37;101487.47;;;26.63;64.44
68580;BME280;55555;52.136;5.424;2022-08-19T12:16:09;101490.34;;;26.58;61.64
68580;BME280;55555;52.136;5.424;2022-08-19T12:18:39;101488.09;;;26.00;64.93
68580;BME280;55555;52.136;5.424;2022-08-19T12:21:21;101495.69;;;25.76;63.96
68580;BME280;55555;52.136;5.424;2022-08-19T12:23:56;101493.97;;;25.61;64.80
68580;BME280;55555;52.136;5.424;2022-08-19T12:26:25;101488.44;;;25.61;63.97
68580;BME280;55555;52.136;5.424;2022-08-19T12:28:53;101489.59;;;25.42;65.44
68580;BME280;55555;52.136;5.424;2022-08-19T12:31:20;101493.84;;;25.15;66.23
68580;BME280;55555;52.136;5.424;2022-08-19T12:33:48;101496.00;;;25.18;65.72
68580;BME280;55555;52.136;5.424;2022-08-19T12:36:16;101496.22;;;25.03;66.42
68580;BME280;55555;52.136;5.424;2022-08-19T12:38:44;101502.44;;;24.66;66.93
68580;BME280;55555;52.136;5.424;2022-08-19T12:41:13;101503.91;;;24.34;68.08
68580;BME280;55555;52.136;5.424;2022-08-19T12:43:44;101496.19;;;24.02;69.13
68580;BME280;55555;52.136;5.424;2022-08-19T12:46:12;101499.09;;;24.16;69.43
68580;BME280;55555;52.136;5.424;2022-08-19T12:48:43;101505.84;;;24.34;69.79
68580;BME280;55555;52.136;5.424;2022-08-19T12:51:14;101499.34;;;24.20;69.31
68580;BME280;55555;52.136;5.424;2022-08-19T12:53:44;101498.00;;;24.17;71.23
68580;BME280;55555;52.136;5.424;2022-08-19T12:56:12;101497.94;;;24.22;71.91
68580;BME280;55555;52.136;5.424;2022-08-19T12:58:41;101482.50;;;24.50;71.97
68580;BME280;55555;52.136;5.424;2022-08-19T13:01:18;101488.78;;;24.56;71.01
68580;BME280;55555;52.136;5.424;2022-08-19T13:03:48;101480.28;;;24.76;70.94
68580;BME280;55555;52.136;5.424;2022-08-19T13:06:16;101483.75;;;24.63;70.80
68580;BME280;55555;52.136;5.424;2022-08-19T13:08:45;101481.09;;;24.77;70.02
68580;BME280;55555;52.136;5.424;2022-08-19T13:11:19;101477.34;;;24.67;69.11
68580;BME280;55555;52.136;5.424;2022-08-19T13:13:50;101487.78;;;24.70;70.79
68580;BME280;55555;52.136;5.424;2022-08-19T13:16:18;101482.97;;;24.57;70.06
68580;BME280;55555;52.136;5.424;2022-08-19T13:18:46;101484.69;;;24.53;70.90
68580;BME280;55555;52.136;5.424;2022-08-19T13:21:14;101488.06;;;24.45;71.41
68580;BME280;55555;52.136;5.424;2022-08-19T13:23:41;101488.75;;;24.37;72.19